Time;durP1;ratioP1;P1;durP2;ratioP2;P2;SDS_P1;SDS_P2;PMS_P1;PMS_P2;Temp;Humidity;BMP_temperature;BMP_pressure;BME280_temperature;BME280_humidity;BME280_pressure;Samples;Min_cycle;Max_cycle;Signal;HPM_P1;HPM_P2
2023/03/24 00:02:09;;;;;;;8.13;7.53;;;10.50;75.00;;;;;;5066612;28;20106;-76
2023/03/24 00:04:35;;;;;;;8.43;7.82;;;10.50;74.50;;;;;;5055958;28;20030;-75
2023/03/24 00:07:02;;;;;;;8.25;7.65;;;10.60;74.00;;;;;;5061532;28;20037;-79
2023/03/24 00:09:31;;;;;;;8.18;7.53;;;10.80;73.50;;;;;;5056554;28;20060;-77
2023/03/24 00:11:57;;;;;;;7.88;7.38;;;10.70;74.10;;;;;;5056646;28;20028;-78
2023/03/24 00:14:24;;;;;;;7.93;7.40;;;10.70;73.50;;;;;;5059374;28;20086;-78
2023/03/24 00:16:51;;;;;;;9.98;9.25;;;10.90;72.80;;;;;;5062990;28;20029;-75
2023/03/24 00:19:18;;;;;;;8.32;7.70;;;11.00;72.70;;;;;;5054397;28;20025;-77
2023/03/24 00:21:45;;;;;;;8.50;8.00;;;11.10;71.60;;;;;;5045076;28;20079;-76
2023/03/24 00:24:11;;;;;;;8.95;8.35;;;11.00;72.10;;;;;;5058778;28;20025;-76
2023/03/24 00:26:40;;;;;;;8.98;8.48;;;11.00;72.00;;;;;;5063234;28;20024;-77
2023/03/24 00:29:09;;;;;;;9.48;8.77;;;11.00;71.80;;;;;;5063044;28;20123;-79
2023/03/24 00:31:38;;;;;;;7.95;7.45;;;11.00;71.90;;;;;;5059028;28;20509;-78
2023/03/24 00:34:07;;;;;;;8.27;7.68;;;11.00;72.40;;;;;;5061537;28;20029;-77
2023/03/24 00:36:34;;;;;;;8.77;8.05;;;10.90;72.30;;;;;;5058563;28;20031;-79
2023/03/24 00:39:00;;;;;;;8.60;7.90;;;10.90;72.70;;;;;;5060473;28;20556;-76
2023/03/24 00:41:26;;;;;;;8.60;8.00;;;10.80;73.20;;;;;;5065108;28;20029;-78
2023/03/24 00:43:55;;;;;;;8.73;8.13;;;10.90;72.80;;;;;;5058788;28;20037;-77
2023/03/24 00:46:27;;;;;;;8.18;7.68;;;10.90;73.50;;;;;;5067064;28;20032;-79
2023/03/24 00:49:05;;;;;;;7.97;7.47;;;10.90;73.20;;;;;;5059922;28;20525;-76
2023/03/24 00:51:38;;;;;;;8.18;7.57;;;11.00;72.90;;;;;;5061471;28;20026;-81
2023/03/24 00:54:05;;;;;;;8.05;7.55;;;11.00;73.20;;;;;;5049452;28;20112;-78
2023/03/24 00:56:34;;;;;;;8.55;7.95;;;10.90;74.10;;;;;;5044124;28;20025;-77
2023/03/24 00:59:00;;;;;;;8.70;8.10;;;10.90;74.10;;;;;;5059098;28;20029;-76
2023/03/24 01:01:35;;;;;;;8.77;8.15;;;11.00;73.30;;;;;;5053863;28;20095;-78
2023/03/24 01:04:01;;;;;;;8.32;7.82;;;11.00;73.60;;;;;;5041809;28;20029;-79
2023/03/24 01:06:27;;;;;;;7.55;7.15;;;11.10;73.30;;;;;;5060811;28;20025;-77
2023/03/24 01:08:53;;;;;;;8.13;7.63;;;11.10;73.30;;;;;;5048862;28;20391;-82
2023/03/24 01:11:24;;;;;;;13.43;7.45;;;11.20;73.20;;;;;;5040304;28;20017;-79
2023/03/24 01:13:53;;;;;;;7.97;7.47;;;11.10;73.30;;;;;;5042961;28;20028;-77
2023/03/24 01:16:18;;;;;;;8.15;7.65;;;11.20;73.30;;;;;;5042659;28;20068;-77
2023/03/24 01:18:45;;;;;;;7.88;7.38;;;11.20;73.00;;;;;;5051255;28;20494;-77
2023/03/24 01:21:11;;;;;;;8.60;8.00;;;11.20;72.60;;;;;;5061370;28;20440;-75
2023/03/24 01:23:40;;;;;;;8.00;7.38;;;11.30;72.00;;;;;;5057403;28;20037;-76
2023/03/24 01:26:08;;;;;;;7.93;7.35;;;11.30;71.60;;;;;;5064740;28;20557;-76
2023/03/24 01:28:39;;;;;;;8.25;7.60;;;11.30;71.60;;;;;;5054878;28;20045;-76
2023/03/24 01:31:07;;;;;;;8.15;7.70;;;11.20;71.70;;;;;;5061175;28;20044;-76
2023/03/24 01:33:33;;;;;;;8.32;7.72;;;11.20;72.30;;;;;;5053333;28;20112;-75
2023/03/24 01:35:59;;;;;;;8.80;8.20;;;11.10;72.20;;;;;;5061185;28;20024;-78
2023/03/24 01:38:25;;;;;;;8.25;7.75;;;11.20;71.80;;;;;;5057013;28;20036;-76
2023/03/24 01:40:51;;;;;;;8.13;7.53;;;11.10;72.10;;;;;;5061387;28;20057;-79
2023/03/24 01:43:31;;;;;;;7.82;7.20;;;11.10;71.60;;;;;;5057448;28;20037;-75
2023/03/24 01:46:07;;;;;;;8.30;7.80;;;10.90;72.10;;;;;;5062134;28;20040;-76
2023/03/24 01:48:36;;;;;;;9.15;8.43;;;10.80;72.70;;;;;;5053170;28;20499;-76
2023/03/24 01:51:16;;;;;;;8.50;8.00;;;10.70;73.10;;;;;;5059545;28;20028;-77
2023/03/24 01:53:50;;;;;;;8.48;7.95;;;10.70;73.20;;;;;;5052007;28;20105;-78
2023/03/24 01:56:17;;;;;;;8.10;7.50;;;10.60;73.40;;;;;;5063184;28;20032;-76
2023/03/24 01:58:49;;;;;;;8.35;7.60;;;10.50;73.70;;;;;;5055805;28;20072;-76
2023/03/24 02:01:16;;;;;;;8.05;7.55;;;10.50;74.00;;;;;;5063890;28;20104;-78
2023/03/24 02:03:43;;;;;;;8.82;8.32;;;10.30;74.10;;;;;;5054340;28;20040;-77
2023/03/24 02:06:10;;;;;;;7.53;7.05;;;10.40;73.90;;;;;;5056558;28;20764;-77
2023/03/24 02:08:51;;;;;;;8.55;7.90;;;10.50;74.20;;;;;;5056020;28;20036;-78
2023/03/24 02:11:19;;;;;;;8.63;7.93;;;10.50;73.90;;;;;;5055933;28;20035;-78
2023/03/24 02:13:45;;;;;;;8.13;7.53;;;10.60;74.10;;;;;;5053108;28;20131;-76
2023/03/24 02:16:25;;;;;;;7.97;7.40;;;10.60;73.50;;;;;;5061108;28;20658;-79
2023/03/24 02:19:13;;;;;;;7.95;7.45;;;10.70;73.20;;;;;;5055264;28;20056;-78
2023/03/24 02:22:08;;;;;;;8.82;7.60;;;10.70;73.50;;;;;;5062649;28;20021;-77
2023/03/24 02:24:39;;;;;;;8.13;7.45;;;10.70;73.20;;;;;;5054941;28;20107;-78
2023/03/24 02:27:41;;;;;;;8.10;7.60;;;10.60;73.50;;;;;;5055747;28;20078;-76
2023/03/24 02:30:21;;;;;;;8.88;8.07;;;10.70;73.40;;;;;;5060835;28;20027;-78
2023/03/24 02:33:05;;;;;;;9.00;8.30;;;10.70;73.00;;;;;;5054798;28;20416;-78
2023/03/24 02:35:51;;;;;;;8.13;7.63;;;10.80;72.70;;;;;;5059061;28;20391;-77
2023/03/24 02:38:59;;;;;;;8.80;8.00;;;10.80;72.80;;;;;;5047459;28;20120;-76
2023/03/24 02:41:42;;;;;;;8.23;7.72;;;10.80;73.00;;;;;;5020780;28;20038;-77
2023/03/24 02:44:18;;;;;;;8.10;7.50;;;10.80;73.50;;;;;;5055235;28;20126;-79
2023/03/24 02:46:53;;;;;;;8.27;7.68;;;10.90;72.90;;;;;;5055475;28;20036;-79
2023/03/24 02:49:36;;;;;;;8.50;7.90;;;10.80;73.00;;;;;;5055920;28;20089;-78
2023/03/24 02:52:58;;;;;;;7.97;7.43;;;10.80;73.00;;;;;;5055074;28;20028;-77
2023/03/24 02:55:52;;;;;;;8.20;7.70;;;10.80;73.20;;;;;;5041990;28;20037;-80
2023/03/24 02:58:25;;;;;;;8.65;8.05;;;10.70;73.60;;;;;;5055069;28;20041;-80
2023/03/24 03:01:02;;;;;;;8.20;7.63;;;10.70;74.00;;;;;;5062215;28;20037;-77
2023/03/24 03:03:37;;;;;;;8.63;7.95;;;10.70;73.90;;;;;;5056765;28;20033;-76
2023/03/24 03:06:11;;;;;;;8.73;8.13;;;10.70;73.80;;;;;;5053492;28;20036;-79
2023/03/24 03:08:38;;;;;;;8.35;7.75;;;10.80;73.40;;;;;;5054978;28;20033;-80
2023/03/24 03:11:08;;;;;;;8.65;8.05;;;10.70;73.60;;;;;;5058249;28;20032;-77
2023/03/24 03:13:38;;;;;;;8.68;8.07;;;10.80;73.80;;;;;;5054621;28;20024;-75
2023/03/24 03:16:09;;;;;;;8.20;7.60;;;10.70;74.00;;;;;;5055445;28;20035;-78
2023/03/24 03:18:48;;;;;;;8.40;7.90;;;10.70;73.80;;;;;;5049299;28;20298;-76
2023/03/24 03:21:17;;;;;;;8.33;7.73;;;10.70;74.00;;;;;;5060261;28;20074;-75
2023/03/24 03:24:06;;;;;;;8.05;7.55;;;10.70;74.00;;;;;;5052121;28;20056;-76
2023/03/24 03:26:33;;;;;;;8.48;7.93;;;10.70;74.60;;;;;;5053332;28;20029;-83
2023/03/24 03:29:15;;;;;;;8.25;7.65;;;10.70;73.90;;;;;;5057220;28;20449;-79
2023/03/24 03:31:49;;;;;;;7.82;7.22;;;10.70;74.00;;;;;;5057719;28;20051;-78
2023/03/24 03:34:54;;;;;;;8.88;8.23;;;10.80;73.80;;;;;;5055712;28;20086;-77
2023/03/24 03:37:54;;;;;;;8.20;7.70;;;10.80;73.80;;;;;;5028696;28;20491;-79
2023/03/24 03:40:22;;;;;;;;;;;10.80;73.50;;;;;;5060737;28;20041;-81
2023/03/24 03:42:48;;;;;;;7.70;7.20;;;10.90;73.50;;;;;;5054504;28;19954;-79
2023/03/24 03:45:13;;;;;;;8.40;7.60;;;11.00;73.50;;;;;;5063424;28;20076;-80
2023/03/24 03:47:39;;;;;;;7.60;7.10;;;11.00;73.50;;;;;;5048800;28;20045;-81
2023/03/24 03:50:07;;;;;;;7.78;7.28;;;11.00;73.50;;;;;;5058974;28;20044;-83
2023/03/24 03:52:35;;;;;;;8.32;7.72;;;11.00;73.00;;;;;;5050788;28;20044;-82
2023/03/24 03:55:02;;;;;;;10.85;9.95;;;11.00;73.20;;;;;;5056452;28;20033;-80
2023/03/24 03:57:29;;;;;;;10.10;9.40;;;11.10;72.90;;;;;;5053412;28;20056;-78
2023/03/24 03:59:55;;;;;;;10.45;9.85;;;11.10;73.30;;;;;;5060418;28;20041;-78
2023/03/24 04:02:25;;;;;;;10.25;9.45;;;11.00;74.60;;;;;;5054524;28;20029;-78
2023/03/24 04:05:00;;;;;;;9.82;9.10;;;11.00;76.90;;;;;;5056146;28;20055;-80
2023/03/24 04:07:44;;;;;;;10.18;9.57;;;10.90;76.90;;;;;;5049328;28;20029;-82
2023/03/24 04:10:27;;;;;;;9.63;9.02;;;10.80;78.60;;;;;;5057436;28;20402;-79
2023/03/24 04:12:58;;;;;;;10.77;10.18;;;10.60;80.20;;;;;;5051500;28;20444;-75
2023/03/24 04:15:30;;;;;;;9.32;8.68;;;10.60;81.90;;;;;;5061687;28;20540;-76
2023/03/24 04:18:13;;;;;;;7.80;7.35;;;10.50;82.30;;;;;;5049349;28;20041;-78
2023/03/24 04:21:05;;;;;;;8.63;8.02;;;10.50;85.20;;;;;;5056477;28;20025;-78
2023/03/24 04:23:44;;;;;;;9.52;8.93;;;10.40;85.60;;;;;;5053522;28;20542;-75
2023/03/24 04:26:33;;;;;;;10.15;9.35;;;10.40;85.20;;;;;;5054256;28;20463;-75
2023/03/24 04:29:17;;;;;;;11.30;10.60;;;10.40;86.30;;;;;;5058983;28;20032;-77
2023/03/24 04:32:04;;;;;;;10.63;9.95;;;10.30;86.00;;;;;;5054061;28;20082;-74
2023/03/24 04:34:38;;;;;;;9.27;8.68;;;10.20;85.70;;;;;;5050709;28;20016;-75
2023/03/24 04:37:04;;;;;;;9.32;8.80;;;10.20;83.90;;;;;;5047838;28;20029;-77
2023/03/24 04:39:34;;;;;;;9.18;8.55;;;10.20;84.10;;;;;;5056822;28;20016;-75
2023/03/24 04:42:06;;;;;;;9.10;8.30;;;10.10;85.00;;;;;;5059445;28;20068;-76
2023/03/24 04:44:32;;;;;;;9.07;8.48;;;10.10;85.30;;;;;;5067367;28;20039;-76
2023/03/24 04:47:01;;;;;;;10.05;9.35;;;10.10;85.30;;;;;;5052418;28;20102;-76
2023/03/24 04:49:27;;;;;;;9.32;8.57;;;10.00;85.60;;;;;;5058606;28;20024;-76
2023/03/24 04:51:54;;;;;;;12.40;11.70;;;9.90;86.60;;;;;;5059408;28;20033;-76
2023/03/24 04:54:21;;;;;;;9.90;9.30;;;9.80;87.00;;;;;;5067885;28;20079;-82
2023/03/24 04:56:55;;;;;;;10.20;9.30;;;9.80;87.80;;;;;;5056238;28;20029;-77
2023/03/24 04:59:21;;;;;;;9.85;9.25;;;9.80;86.90;;;;;;5045530;28;20040;-76
2023/03/24 05:01:50;;;;;;;12.48;11.63;;;9.80;87.10;;;;;;5049331;28;20480;-76
2023/03/24 05:04:21;;;;;;;9.55;8.73;;;9.70;87.00;;;;;;5064649;28;20040;-79
2023/03/24 05:06:48;;;;;;;9.32;8.73;;;9.70;86.20;;;;;;5056721;28;20029;-80
2023/03/24 05:09:18;;;;;;;10.25;9.63;;;9.70;86.80;;;;;;5061638;28;20375;-77
2023/03/24 05:11:45;;;;;;;9.90;9.25;;;9.60;88.00;;;;;;5052302;28;20025;-77
2023/03/24 05:14:10;;;;;;;9.70;9.10;;;9.60;87.50;;;;;;5051077;28;20075;-79
2023/03/24 05:16:36;;;;;;;10.70;10.10;;;9.60;87.40;;;;;;5045427;28;20032;-80
2023/03/24 05:19:02;;;;;;;11.18;10.27;;;9.80;85.80;;;;;;5048384;28;20024;-80
2023/03/24 05:21:28;;;;;;;12.35;11.65;;;9.80;85.40;;;;;;5055775;28;20033;-82
2023/03/24 05:23:54;;;;;;;10.05;9.45;;;9.90;84.70;;;;;;5062000;28;20402;-76
2023/03/24 05:26:20;;;;;;;10.75;10.15;;;10.00;84.20;;;;;;5052168;28;20086;-78
2023/03/24 05:28:45;;;;;;;9.40;8.80;;;10.00;84.00;;;;;;5050988;28;20040;-76
2023/03/24 05:31:11;;;;;;;19.90;18.83;;;10.10;84.30;;;;;;5053520;28;20394;-78
2023/03/24 05:33:37;;;;;;;9.70;9.05;;;10.10;83.90;;;;;;5036634;28;20470;-78
2023/03/24 05:36:03;;;;;;;21.42;19.85;;;10.10;84.00;;;;;;5046700;28;20029;-79
2023/03/24 05:38:29;;;;;;;10.20;9.57;;;10.20;83.60;;;;;;5033371;28;20055;-77
2023/03/24 05:40:57;;;;;;;12.70;11.85;;;10.20;83.60;;;;;;5052965;28;20492;-75
2023/03/24 05:43:22;;;;;;;17.15;16.30;;;10.30;83.00;;;;;;5059924;28;20123;-77
2023/03/24 05:45:48;;;;;;;17.52;16.45;;;10.30;82.80;;;;;;5052173;28;20132;-80
2023/03/24 05:48:14;;;;;;;9.25;8.63;;;10.40;83.10;;;;;;5056268;28;20032;-80
2023/03/24 05:50:40;;;;;;;10.48;9.68;;;10.30;82.90;;;;;;5053663;28;20390;-75
2023/03/24 05:53:05;;;;;;;9.07;8.48;;;10.40;82.60;;;;;;5051373;28;20107;-78
2023/03/24 05:55:31;;;;;;;8.98;8.38;;;10.50;82.50;;;;;;5059344;28;20549;-78
2023/03/24 05:58:00;;;;;;;12.38;11.65;;;10.50;83.10;;;;;;5064439;28;20121;-77
2023/03/24 06:00:30;;;;;;;15.82;14.93;;;10.50;82.30;;;;;;5054369;28;20032;-78
2023/03/24 06:02:57;;;;;;;68.43;62.90;;;10.80;81.30;;;;;;5058200;28;20043;-77
2023/03/24 06:05:23;;;;;;;12.95;12.25;;;11.00;80.10;;;;;;5059239;28;20394;-75
2023/03/24 06:07:49;;;;;;;22.88;21.77;;;11.00;80.50;;;;;;5057569;28;20048;-82
2023/03/24 06:10:17;;;;;;;18.52;17.67;;;11.00;80.10;;;;;;5055202;28;20037;-79
2023/03/24 06:12:44;;;;;;;29.27;28.08;;;11.10;79.80;;;;;;5052699;28;20029;-74
2023/03/24 06:15:10;;;;;;;42.90;41.22;;;11.10;81.30;;;;;;5056747;28;20025;-76
2023/03/24 06:17:36;;;;;;;34.95;33.55;;;11.00;81.40;;;;;;5060815;28;20064;-75
2023/03/24 06:20:10;;;;;;;30.50;29.25;;;11.10;80.90;;;;;;5059164;28;20060;-79
2023/03/24 06:22:37;;;;;;;28.08;26.92;;;11.10;80.40;;;;;;5055705;28;20513;-74
2023/03/24 06:25:03;;;;;;;28.30;26.98;;;11.20;80.10;;;;;;5055453;28;20028;-76
2023/03/24 06:27:34;;;;;;;22.17;21.23;;;11.30;79.60;;;;;;5060337;28;20041;-80
2023/03/24 06:30:00;;;;;;;27.45;26.35;;;11.40;80.40;;;;;;5056888;28;20064;-74
2023/03/24 06:32:26;;;;;;;72.93;70.00;;;11.60;79.70;;;;;;5047152;28;20497;-76
2023/03/24 06:34:52;;;;;;;76.57;73.65;;;11.60;80.90;;;;;;5049761;28;20039;-74
2023/03/24 06:37:22;;;;;;;33.85;32.45;;;11.60;82.40;;;;;;5058378;28;20044;-74
2023/03/24 06:39:48;;;;;;;22.98;22.02;;;11.60;82.30;;;;;;5059200;28;20035;-77
2023/03/24 06:42:14;;;;;;;112.95;107.75;;;11.50;83.60;;;;;;5047658;28;20049;-78
2023/03/24 06:44:40;;;;;;;26.42;25.33;;;11.60;81.40;;;;;;5060427;28;20767;-75
2023/03/24 06:47:06;;;;;;;26.90;25.75;;;11.50;84.10;;;;;;5054712;28;20032;-75
2023/03/24 06:49:33;;;;;;;35.10;33.75;;;11.40;84.30;;;;;;5059193;28;20394;-74
2023/03/24 06:52:02;;;;;;;148.95;141.30;;;11.50;82.40;;;;;;5055953;28;20043;-77
2023/03/24 06:54:28;;;;;;;42.90;41.08;;;11.40;83.60;;;;;;5055179;28;20037;-74
2023/03/24 06:56:53;;;;;;;37.95;36.53;;;11.50;84.70;;;;;;5060727;28;20116;-76
2023/03/24 06:59:22;;;;;;;28.10;26.98;;;11.40;84.90;;;;;;5059705;28;20108;-75
2023/03/24 07:01:52;;;;;;;30.15;28.90;;;11.50;84.60;;;;;;5059059;28;20032;-75
2023/03/24 07:04:18;;;;;;;25.92;24.80;;;11.50;84.00;;;;;;5059823;28;20394;-77
2023/03/24 07:06:44;;;;;;;22.67;21.73;;;11.60;85.00;;;;;;5059439;28;20029;-74
2023/03/24 07:09:11;;;;;;;25.45;24.38;;;11.60;84.80;;;;;;5055706;28;20038;-74
2023/03/24 07:11:37;;;;;;;27.42;26.23;;;11.60;85.00;;;;;;5054385;28;20390;-74
2023/03/24 07:14:02;;;;;;;54.58;52.13;;;11.60;84.80;;;;;;5058335;28;20023;-74
2023/03/24 07:16:28;;;;;;;21.52;20.63;;;11.70;83.30;;;;;;5057397;28;20483;-76
2023/03/24 07:18:54;;;;;;;21.85;20.67;;;11.80;84.10;;;;;;5060260;28;20045;-76
2023/03/24 07:21:19;;;;;;;21.10;20.20;;;11.80;84.40;;;;;;5055929;28;20029;-74
2023/03/24 07:23:45;;;;;;;18.58;17.77;;;11.90;84.60;;;;;;5059458;28;20056;-74
2023/03/24 07:26:11;;;;;;;20.83;19.88;;;11.90;83.30;;;;;;5049560;28;20077;-76
2023/03/24 07:28:37;;;;;;;84.40;80.65;;;11.90;82.90;;;;;;5053956;28;20109;-76
2023/03/24 07:31:05;;;;;;;21.95;20.95;;;11.80;82.60;;;;;;5056620;28;20036;-73
2023/03/24 07:33:31;;;;;;;26.20;25.00;;;11.80;83.60;;;;;;5056220;28;20107;-74
2023/03/24 07:35:58;;;;;;;24.00;23.00;;;11.80;83.80;;;;;;5058065;28;21045;-73
2023/03/24 07:38:24;;;;;;;21.83;20.83;;;11.70;84.10;;;;;;5061721;28;20090;-75
2023/03/24 07:40:50;;;;;;;20.58;19.58;;;11.70;85.40;;;;;;5072890;28;20040;-73
2023/03/24 07:43:16;;;;;;;23.52;22.45;;;11.90;84.30;;;;;;5060703;28;20402;-74
2023/03/24 07:45:44;;;;;;;18.95;17.83;;;11.80;83.30;;;;;;5056141;28;20036;-75
2023/03/24 07:48:10;;;;;;;31.35;29.95;;;11.80;84.40;;;;;;5058119;28;20082;-74
2023/03/24 07:50:36;;;;;;;24.23;22.88;;;11.70;86.40;;;;;;5048764;28;20036;-77
2023/03/24 07:53:01;;;;;;;36.78;35.30;;;11.60;88.60;;;;;;5051130;28;20032;-74
2023/03/24 07:55:27;;;;;;;51.63;49.45;;;11.40;88.80;;;;;;5053707;28;20029;-74
2023/03/24 07:57:53;;;;;;;62.03;59.38;;;11.40;89.00;;;;;;5053447;28;20403;-73
2023/03/24 08:00:20;;;;;;;28.75;27.45;;;11.40;88.10;;;;;;5053231;28;20073;-76
2023/03/24 08:02:51;;;;;;;72.28;68.95;;;11.40;89.00;;;;;;5059886;28;20128;-73
2023/03/24 08:05:18;;;;;;;24.17;22.98;;;11.40;88.20;;;;;;5051958;28;20029;-74
2023/03/24 08:07:52;;;;;;;68.82;65.65;;;11.40;88.40;;;;;;5050081;28;20171;-75
2023/03/24 08:10:20;;;;;;;146.57;109.22;;;11.40;89.10;;;;;;5049690;28;20116;-74
2023/03/24 08:12:46;;;;;;;29.45;28.20;;;11.30;89.90;;;;;;5061111;28;20036;-75
2023/03/24 08:15:13;;;;;;;49.65;47.67;;;11.20;90.90;;;;;;5045455;28;20029;-75
2023/03/24 08:17:40;;;;;;;34.47;33.15;;;11.10;91.30;;;;;;5055236;28;20033;-73
2023/03/24 08:20:08;;;;;;;40.17;38.55;;;11.20;91.50;;;;;;5056874;28;20497;-73
2023/03/24 08:22:37;;;;;;;233.73;175.35;;;11.10;93.10;;;;;;5049595;28;20094;-73
2023/03/24 08:25:02;;;;;;;51.88;49.42;;;11.10;93.40;;;;;;5051445;28;20039;-75
2023/03/24 08:27:28;;;;;;;65.63;61.92;;;11.00;94.30;;;;;;5054365;28;20037;-74
2023/03/24 08:29:54;;;;;;;171.45;163.57;;;11.00;93.40;;;;;;5059994;28;20067;-73
2023/03/24 08:32:20;;;;;;;42.60;40.63;;;11.00;93.40;;;;;;5052431;28;20037;-73
2023/03/24 08:34:45;;;;;;;39.53;37.85;;;11.00;94.10;;;;;;5058594;28;20033;-75
2023/03/24 08:37:11;;;;;;;121.53;77.30;;;11.00;94.00;;;;;;5066426;28;20551;-73
2023/03/24 08:39:37;;;;;;;135.10;55.38;;;11.00;93.20;;;;;;5053699;28;20475;-73
2023/03/24 08:42:03;;;;;;;13.10;12.50;;;11.00;94.00;;;;;;5066880;28;20079;-73
2023/03/24 08:44:29;;;;;;;316.00;81.10;;;10.90;95.40;;;;;;5055554;28;20522;-74
2023/03/24 08:46:54;;;;;;;31.35;29.83;;;10.90;94.00;;;;;;5062072;28;20025;-77
2023/03/24 08:49:20;;;;;;;13.05;12.43;;;10.90;94.70;;;;;;5052859;28;20106;-73
2023/03/24 08:51:46;;;;;;;18.80;17.85;;;10.90;96.00;;;;;;5060692;28;20067;-73
2023/03/24 08:54:12;;;;;;;23.73;22.63;;;11.00;96.40;;;;;;5056609;28;20422;-73
2023/03/24 08:56:38;;;;;;;14.50;13.80;;;11.10;96.10;;;;;;5060564;28;20078;-75
2023/03/24 08:59:05;;;;;;;15.32;14.57;;;11.10;95.90;;;;;;5060872;28;20050;-76
2023/03/24 09:01:32;;;;;;;16.73;15.82;;;11.10;96.10;;;;;;5059854;28;20069;-77
2023/03/24 09:03:59;;;;;;;22.98;21.80;;;11.00;96.20;;;;;;5057989;28;20049;-76
2023/03/24 09:06:26;;;;;;;12.70;12.00;;;11.00;96.70;;;;;;5065870;28;20024;-74
2023/03/24 09:08:52;;;;;;;98.97;58.15;;;11.00;97.00;;;;;;5054312;28;20057;-74
2023/03/24 09:11:20;;;;;;;12.68;12.07;;;10.90;96.00;;;;;;5061988;28;20108;-74
2023/03/24 09:13:47;;;;;;;9.90;9.38;;;10.80;97.10;;;;;;5061957;28;20025;-74
2023/03/24 09:16:13;;;;;;;32.97;31.30;;;10.90;98.70;;;;;;5053588;28;20090;-73
2023/03/24 09:18:39;;;;;;;19.35;18.25;;;10.90;97.40;;;;;;5056680;28;20041;-75
2023/03/24 09:21:06;;;;;;;22.08;20.80;;;10.90;98.10;;;;;;5062282;28;20032;-73
2023/03/24 09:23:32;;;;;;;29.00;27.55;;;10.90;98.30;;;;;;5055547;28;20040;-73
2023/03/24 09:25:59;;;;;;;15.68;14.98;;;10.90;98.20;;;;;;5056010;28;20029;-74
2023/03/24 09:28:24;;;;;;;13.48;12.68;;;11.00;98.90;;;;;;5051269;28;20083;-74
2023/03/24 09:30:54;;;;;;;154.50;73.60;;;11.10;99.20;;;;;;5059870;28;20036;-76
2023/03/24 09:33:20;;;;;;;15.60;14.50;;;11.10;99.30;;;;;;5058606;28;20056;-76
2023/03/24 09:36:02;;;;;;;33.17;29.90;;;11.00;99.30;;;;;;5058670;28;20487;-73
2023/03/24 09:38:28;;;;;;;23.00;21.23;;;11.00;99.30;;;;;;5056143;28;20055;-75
2023/03/24 09:41:03;;;;;;;21.35;20.00;;;10.90;99.70;;;;;;5052786;28;20364;-74
2023/03/24 09:43:48;;;;;;;18.13;17.23;;;11.00;99.90;;;;;;5056102;28;20033;-74
2023/03/24 09:46:42;;;;;;;22.00;20.38;;;10.90;99.90;;;;;;5059526;28;20032;-77
2023/03/24 09:49:15;;;;;;;76.35;51.42;;;10.90;99.90;;;;;;5056047;28;20581;-75
2023/03/24 09:51:43;;;;;;;25.20;23.05;;;10.90;99.90;;;;;;5050859;28;20032;-76
2023/03/24 09:54:34;;;;;;;87.90;76.03;;;10.90;99.90;;;;;;5051716;28;20035;-73
2023/03/24 09:57:00;;;;;;;14.60;13.75;;;11.00;99.90;;;;;;5060039;28;20028;-74
2023/03/24 09:59:36;;;;;;;14.40;13.50;;;11.10;99.90;;;;;;5054784;28;20032;-75
2023/03/24 10:02:14;;;;;;;60.88;26.13;;;11.20;99.90;;;;;;5062276;28;20033;-75
2023/03/24 10:04:40;;;;;;;15.60;14.80;;;11.50;99.90;;;;;;5057907;28;20036;-73
2023/03/24 10:07:15;;;;;;;94.90;38.70;;;11.60;99.90;;;;;;5061006;28;20426;-73
2023/03/24 10:09:44;;;;;;;91.65;84.03;;;11.60;98.00;;;;;;5058422;28;20032;-73
2023/03/24 10:12:09;;;;;;;15.68;14.80;;;11.70;97.80;;;;;;5048492;28;20029;-76
2023/03/24 10:14:50;;;;;;;13.35;12.63;;;11.60;98.10;;;;;;5056509;28;20028;-73
2023/03/24 10:17:37;;;;;;;10.65;10.10;;;11.70;97.90;;;;;;5059066;28;20029;-72
2023/03/24 10:20:29;;;;;;;17.67;16.17;;;11.90;96.60;;;;;;5057379;28;20029;-75
2023/03/24 10:23:21;;;;;;;24.70;23.15;;;11.90;96.00;;;;;;5057238;28;20075;-74
2023/03/24 10:25:59;;;;;;;35.47;22.65;;;12.00;95.20;;;;;;5060513;28;20441;-73
2023/03/24 10:28:39;;;;;;;19.33;17.80;;;12.20;94.20;;;;;;5054441;28;20116;-75
2023/03/24 10:31:10;;;;;;;11.50;10.65;;;12.50;94.00;;;;;;5056368;28;20393;-74
2023/03/24 10:33:43;;;;;;;18.10;16.65;;;12.70;94.40;;;;;;5057469;28;20052;-74
2023/03/24 10:36:17;;;;;;;124.90;49.03;;;12.80;92.70;;;;;;5063255;28;20121;-74
2023/03/24 10:38:43;;;;;;;24.08;22.67;;;12.70;91.80;;;;;;5054455;28;20123;-74
2023/03/24 10:41:14;;;;;;;9.88;9.38;;;12.60;92.00;;;;;;5058026;28;20097;-73
2023/03/24 10:43:39;;;;;;;;;;;12.60;90.40;;;;;;5060186;28;20484;-73
2023/03/24 10:46:05;;;;;;;21.58;20.38;;;12.80;91.70;;;;;;5063731;28;19917;-74
2023/03/24 10:48:40;;;;;;;43.00;31.20;;;12.60;90.10;;;;;;5059874;28;20119;-75
2023/03/24 10:51:12;;;;;;;5.63;4.80;;;12.50;90.20;;;;;;5057850;28;20360;-74
2023/03/24 10:53:38;;;;;;;131.80;80.60;;;12.50;92.10;;;;;;5052022;28;20041;-75
2023/03/24 10:56:04;;;;;;;6.57;6.25;;;12.50;90.30;;;;;;5060597;28;20086;-74
2023/03/24 10:58:39;;;;;;;7.43;7.03;;;12.60;91.40;;;;;;5054074;28;20086;-72
2023/03/24 11:01:33;;;;;;;12.43;11.60;;;12.50;90.10;;;;;;5058975;28;20043;-74
2023/03/24 11:04:03;;;;;;;10.63;10.10;;;12.40;91.40;;;;;;5055885;28;20036;-75
2023/03/24 11:06:31;;;;;;;4.35;4.15;;;12.40;90.40;;;;;;5060691;28;20171;-75
2023/03/24 11:09:16;;;;;;;22.38;20.88;;;12.60;92.00;;;;;;5055370;28;20402;-74
2023/03/24 11:11:42;;;;;;;8.43;7.95;;;12.70;89.40;;;;;;5049179;28;20029;-73
2023/03/24 11:14:21;;;;;;;256.25;93.57;;;12.40;90.20;;;;;;5043032;28;20037;-76
2023/03/24 11:16:47;;;;;;;5.32;5.13;;;12.10;91.40;;;;;;5054893;28;20028;-75
2023/03/24 11:19:22;;;;;;;5.95;5.65;;;11.90;93.30;;;;;;5055881;28;20401;-74
2023/03/24 11:21:51;;;;;;;15.88;14.52;;;11.70;93.60;;;;;;5054642;28;20033;-74
2023/03/24 11:24:19;;;;;;;19.60;18.65;;;11.60;93.00;;;;;;5055156;28;20039;-76
2023/03/24 11:26:53;;;;;;;9.32;8.43;;;11.60;93.40;;;;;;5054274;28;20110;-74
2023/03/24 11:29:23;;;;;;;5.80;5.40;;;11.50;94.80;;;;;;5058335;28;20046;-75
2023/03/24 11:32:04;;;;;;;37.90;28.30;;;11.50;95.70;;;;;;5058881;28;20110;-77
2023/03/24 11:34:41;;;;;;;18.60;17.60;;;11.40;93.70;;;;;;5057144;28;20064;-74
2023/03/24 11:37:21;;;;;;;12.45;11.85;;;11.30;94.50;;;;;;5057421;28;20181;-74
2023/03/24 11:40:10;;;;;;;6.55;6.18;;;11.10;95.30;;;;;;5055644;28;20028;-78
2023/03/24 11:42:52;;;;;;;6.80;6.45;;;11.00;95.80;;;;;;5053894;28;20052;-74
2023/03/24 11:45:31;;;;;;;38.85;35.15;;;11.00;96.10;;;;;;5055947;28;20501;-77
2023/03/24 11:47:58;;;;;;;131.88;62.15;;;11.00;95.60;;;;;;5049993;28;20049;-77
2023/03/24 11:50:33;;;;;;;10.82;10.32;;;11.00;96.00;;;;;;5067176;28;20070;-74
2023/03/24 11:53:26;;;;;;;10.90;10.07;;;11.00;96.30;;;;;;5052926;28;20108;-77
2023/03/24 11:56:06;;;;;;;24.88;14.40;;;10.90;97.20;;;;;;5057681;28;20031;-74
2023/03/24 11:59:03;;;;;;;7.60;7.22;;;10.80;96.60;;;;;;5059490;28;20032;-74
2023/03/24 12:01:46;;;;;;;115.28;105.32;;;10.70;98.10;;;;;;5060327;28;20115;-79
2023/03/24 12:04:15;;;;;;;10.63;10.10;;;10.60;97.50;;;;;;5058061;28;20405;-74
2023/03/24 12:07:17;;;;;;;11.63;10.73;;;10.50;98.20;;;;;;5057758;28;20025;-76
2023/03/24 12:10:11;;;;;;;10.55;10.10;;;10.50;98.00;;;;;;5073203;28;20528;-74
2023/03/24 12:12:51;;;;;;;47.78;28.83;;;10.60;98.90;;;;;;5055129;28;20067;-77
2023/03/24 12:15:55;;;;;;;7.88;7.53;;;10.60;97.80;;;;;;5063738;28;20040;-77
2023/03/24 12:18:24;;;;;;;12.25;11.65;;;10.60;98.10;;;;;;5056096;28;20067;-76
2023/03/24 12:21:23;;;;;;;9.32;8.93;;;10.70;97.10;;;;;;5058789;28;20036;-76
2023/03/24 12:24:07;;;;;;;8.23;7.93;;;10.70;97.20;;;;;;5063188;28;20025;-76
2023/03/24 12:26:33;;;;;;;6.28;5.97;;;10.70;97.20;;;;;;5054209;28;20480;-74
2023/03/24 12:29:17;;;;;;;7.72;7.43;;;10.60;97.30;;;;;;5063020;28;20040;-74
2023/03/24 12:32:00;;;;;;;8.98;8.55;;;10.50;98.30;;;;;;5053042;28;20024;-79
2023/03/24 12:34:38;;;;;;;8.32;7.95;;;10.50;97.80;;;;;;5055051;28;20025;-77
2023/03/24 12:37:22;;;;;;;95.72;54.22;;;10.50;97.80;;;;;;5056592;28;20570;-77
2023/03/24 12:40:12;;;;;;;5.18;4.97;;;10.50;97.10;;;;;;5062111;28;20103;-74
2023/03/24 12:42:40;;;;;;;18.00;16.83;;;10.50;95.60;;;;;;5054959;28;20025;-77
2023/03/24 12:45:54;;;;;;;14.85;14.07;;;10.60;95.20;;;;;;5063076;28;20025;-74
2023/03/24 12:48:19;;;;;;;52.38;47.85;;;10.60;96.10;;;;;;5051399;28;20040;-73
2023/03/24 12:50:57;;;;;;;4.35;4.15;;;10.70;94.20;;;;;;5061586;28;20024;-74
2023/03/24 12:53:44;;;;;;;4.90;4.70;;;10.60;96.30;;;;;;5058691;28;20120;-73
2023/03/24 12:56:22;;;;;;;4.65;4.45;;;10.60;95.20;;;;;;5059719;28;20559;-73
2023/03/24 12:58:49;;;;;;;6.50;6.22;;;10.60;94.10;;;;;;5060033;28;20041;-76
2023/03/24 13:01:30;;;;;;;15.30;14.40;;;10.50;96.20;;;;;;5052700;28;20055;-74